createdAt,value
2023-03-29T04:00:48.426Z,76.77
2023-03-29T04:05:10.159Z,76.63
2023-03-29T04:09:14.613Z,76.20
2023-03-29T04:13:20.672Z,76.27
2023-03-29T04:18:01.973Z,77.01
2023-03-29T04:22:09.416Z,77.27
2023-03-29T04:26:13.624Z,77.18
2023-03-29T04:30:23.532Z,77.40
2023-03-29T04:34:51.204Z,77.09
2023-03-29T04:38:53.749Z,77.43
2023-03-29T04:42:56.292Z,77.66
2023-03-29T04:46:58.807Z,77.80
2023-03-29T04:51:08.734Z,77.76
2023-03-29T04:55:12.313Z,78.08
2023-03-29T04:59:37.970Z,78.25
2023-03-29T05:03:50.848Z,78.05
2023-03-29T05:08:01.530Z,77.85
2023-03-29T05:12:12.927Z,78.58
2023-03-29T05:16:34.622Z,77.83
2023-03-29T05:20:38.348Z,77.93
2023-03-29T05:24:43.223Z,77.59
2023-03-29T05:28:50.849Z,77.92
2023-03-29T05:32:53.938Z,77.51
2023-03-29T05:37:01.434Z,77.75
2023-03-29T05:41:11.641Z,77.87
2023-03-29T05:45:17.356Z,77.19
2023-03-29T05:49:21.447Z,77.75
2023-03-29T05:53:45.219Z,77.28
2023-03-29T05:57:49.224Z,77.29
2023-03-29T06:01:54.122Z,76.93
2023-03-29T06:05:59.090Z,77.30
2023-03-29T06:10:02.763Z,77.17
2023-03-29T06:14:06.701Z,76.92
2023-03-29T06:18:11.678Z,76.65
2023-03-29T06:22:15.012Z,75.41
2023-03-29T06:26:18.934Z,75.06
2023-03-29T06:30:24.878Z,75.04
2023-03-29T06:34:29.702Z,75.32
2023-03-29T06:38:45.859Z,74.96
2023-03-29T06:42:57.836Z,74.29
2023-03-29T06:47:20.769Z,73.12
2023-03-29T06:51:23.609Z,73.01
2023-03-29T06:55:28.682Z,71.99
2023-03-29T06:59:33.828Z,70.78
2023-03-29T07:03:49.374Z,70.13
2023-03-29T07:07:56.526Z,69.97
2023-03-29T07:12:11.091Z,69.73
2023-03-29T07:16:14.606Z,70.35
2023-03-29T07:20:27.570Z,69.60
2023-03-29T07:24:40.047Z,69.75
2023-03-29T07:28:43.124Z,69.26
2023-03-29T07:32:47.302Z,68.05
2023-03-29T07:37:01.522Z,68.02
2023-03-29T07:41:05.778Z,67.93
2023-03-29T07:45:26.756Z,67.56
2023-03-29T07:49:36.433Z,66.90
2023-03-29T07:53:40.440Z,66.39
2023-03-29T07:57:56.529Z,65.49
2023-03-29T08:01:59.311Z,66.23
2023-03-29T08:06:07.918Z,65.27
2023-03-29T08:10:15.253Z,64.63
2023-03-29T08:14:31.548Z,64.66
2023-03-29T08:18:39.743Z,65.83
2023-03-29T08:22:43.101Z,64.44
2023-03-29T08:27:01.433Z,64.19
2023-03-29T08:31:04.204Z,63.71
2023-03-29T08:35:09.643Z,64.50
2023-03-29T08:39:19.641Z,63.95
2023-03-29T08:43:57.988Z,63.91
2023-03-29T08:48:28.369Z,62.77
2023-03-29T08:52:35.506Z,62.62
2023-03-29T08:56:51.291Z,62.40
2023-03-29T09:01:08.558Z,61.85
2023-03-29T09:05:27.910Z,61.13
2023-03-29T09:09:41.657Z,61.17
2023-03-29T09:14:04.964Z,59.38
2023-03-29T09:18:16.689Z,59.92
2023-03-29T09:22:25.007Z,59.28
2023-03-29T09:26:36.019Z,58.85
2023-03-29T09:31:07.837Z,58.05
2023-03-29T09:35:18.433Z,58.37
2023-03-29T09:39:23.388Z,58.65
2023-03-29T09:43:36.124Z,58.66
2023-03-29T09:47:45.922Z,59.13
2023-03-29T09:51:51.269Z,58.89
2023-03-29T09:55:56.014Z,59.35
2023-03-29T10:00:17.667Z,59.14
2023-03-29T10:04:22.161Z,60.70
2023-03-29T10:08:39.665Z,60.21
2023-03-29T10:12:50.451Z,60.58
2023-03-29T10:16:57.240Z,60.31
2023-03-29T10:21:02.591Z,60.31
2023-03-29T10:25:14.437Z,59.02
2023-03-29T10:29:17.336Z,58.54
2023-03-29T10:33:23.971Z,57.86
2023-03-29T10:37:29.478Z,58.41
2023-03-29T10:41:35.029Z,57.86
2023-03-29T10:45:39.993Z,56.75
2023-03-29T10:49:44.984Z,55.77
2023-03-29T10:53:48.094Z,54.70
2023-03-29T10:58:03.868Z,55.15
2023-03-29T11:02:38.434Z,55.76
2023-03-29T11:06:48.227Z,56.44
2023-03-29T11:11:01.306Z,55.07
2023-03-29T11:15:34.208Z,55.45
2023-03-29T11:19:49.260Z,56.63
2023-03-29T11:24:06.495Z,56.38
2023-03-29T11:28:18.351Z,55.78
2023-03-29T11:32:29.372Z,55.56
2023-03-29T11:36:38.870Z,56.35
2023-03-29T11:40:51.439Z,55.45
2023-03-29T11:44:57.875Z,55.54
2023-03-29T11:49:05.955Z,55.12
2023-03-29T11:53:12.578Z,55.71
2023-03-29T11:57:22.085Z,56.97
2023-03-29T12:01:34.214Z,56.26
2023-03-29T12:05:43.779Z,57.18
2023-03-29T12:09:51.439Z,56.99
2023-03-29T12:13:58.468Z,57.63
2023-03-29T12:18:15.004Z,56.77
2023-03-29T12:22:18.966Z,57.90
2023-03-29T12:26:36.532Z,56.52
2023-03-29T12:30:47.916Z,56.62
2023-03-29T12:35:06.989Z,57.82
2023-03-29T12:39:43.179Z,59.40
2023-03-29T12:44:05.827Z,60.29
2023-03-29T12:48:20.712Z,62.68
2023-03-29T12:52:28.210Z,65.85
2023-03-29T12:56:41.848Z,64.30
2023-03-29T13:00:46.269Z,65.55
2023-03-29T13:04:54.336Z,66.45
2023-03-29T13:09:02.820Z,66.99
2023-03-29T13:13:19.860Z,68.72
2023-03-29T13:17:38.122Z,69.65
2023-03-29T13:21:50.237Z,70.56
2023-03-29T13:26:11.283Z,71.62
2023-03-29T13:30:24.248Z,73.22
2023-03-29T13:34:37.666Z,72.51
2023-03-29T13:38:49.226Z,71.43
2023-03-29T13:42:59.593Z,70.06
2023-03-29T13:47:06.729Z,67.14
2023-03-29T13:51:22.577Z,65.28
2023-03-29T13:55:28.083Z,63.17
2023-03-29T13:59:49.115Z,62.24
2023-03-29T14:03:53.534Z,61.80
2023-03-29T14:07:56.439Z,62.81
2023-03-29T14:12:00.259Z,62.76
2023-03-29T14:16:07.588Z,62.78
2023-03-29T14:20:16.625Z,62.19
2023-03-29T14:24:22.355Z,61.58
2023-03-29T14:28:27.022Z,61.84
2023-03-29T14:32:31.382Z,61.26
2023-03-29T14:36:35.381Z,61.56
2023-03-29T14:40:38.012Z,62.13
2023-03-29T14:44:40.983Z,62.42
2023-03-29T14:48:44.725Z,62.29
2023-03-29T14:52:52.386Z,62.07
2023-03-29T14:56:55.464Z,62.77
2023-03-29T15:00:58.320Z,64.56
2023-03-29T15:05:04.671Z,63.96
2023-03-29T15:09:12.939Z,63.78
2023-03-29T15:13:20.916Z,63.90
2023-03-29T15:17:47.633Z,63.01
2023-03-29T15:21:53.196Z,62.96
2023-03-29T15:25:59.264Z,62.87
2023-03-29T15:30:03.557Z,63.43
2023-03-29T15:34:09.397Z,63.29
2023-03-29T15:38:13.988Z,63.73
2023-03-29T15:42:17.881Z,63.49
2023-03-29T15:46:20.410Z,62.73
2023-03-29T15:50:23.410Z,62.66
2023-03-29T15:54:26.321Z,61.91
2023-03-29T15:58:32.127Z,62.40
2023-03-29T16:02:35.426Z,63.03
2023-03-29T16:06:37.894Z,63.04
2023-03-29T16:10:41.420Z,64.17
2023-03-29T16:14:45.333Z,64.05
2023-03-29T16:18:48.012Z,64.76
2023-03-29T16:22:51.296Z,64.60
2023-03-29T16:26:56.008Z,65.23
2023-03-29T16:31:00.306Z,64.98
2023-03-29T16:35:04.530Z,65.38
2023-03-29T16:39:07.264Z,65.81
2023-03-29T16:43:14.905Z,65.63
2023-03-29T16:47:18.696Z,65.74
2023-03-29T16:51:21.311Z,66.13
2023-03-29T16:55:23.882Z,66.20
2023-03-29T16:59:27.034Z,66.10
2023-03-29T17:03:31.065Z,66.04
2023-03-29T17:07:33.632Z,66.06
2023-03-29T17:11:36.475Z,66.06
2023-03-29T17:15:39.910Z,66.90
2023-03-29T17:19:43.966Z,67.65
2023-03-29T17:23:46.459Z,68.97
2023-03-29T17:27:49.669Z,69.82
2023-03-29T17:31:52.219Z,69.84
2023-03-29T17:35:56.437Z,70.28
2023-03-29T17:39:59.006Z,69.06
2023-03-29T17:44:02.100Z,68.47
2023-03-29T17:48:06.540Z,68.58
2023-03-29T17:52:10.739Z,68.88
2023-03-29T17:56:13.299Z,69.10
2023-03-29T18:00:17.131Z,69.39
2023-03-29T18:04:19.645Z,69.73
2023-03-29T18:08:23.494Z,70.24
2023-03-29T18:12:26.735Z,70.46
2023-03-29T18:16:29.929Z,71.49
2023-03-29T18:20:32.682Z,72.32
2023-03-29T18:24:36.623Z,72.52
2023-03-29T18:28:39.190Z,72.63
2023-03-29T18:32:41.751Z,73.03
2023-03-29T18:36:44.374Z,73.43
2023-03-29T18:40:48.815Z,73.54
2023-03-29T18:44:52.158Z,73.76
2023-03-29T18:48:54.686Z,73.87
2023-03-29T18:52:57.172Z,73.91
2023-03-29T18:57:01.337Z,73.46
2023-03-29T19:01:05.893Z,73.77
2023-03-29T19:05:09.232Z,73.65
2023-03-29T19:09:11.788Z,73.63
2023-03-29T19:13:15.644Z,73.32
2023-03-29T19:17:18.273Z,73.16
2023-03-29T19:21:21.942Z,72.71
2023-03-29T19:25:24.514Z,72.95
2023-03-29T19:29:28.356Z,72.83
2023-03-29T19:33:31.074Z,73.37
2023-03-29T19:37:33.617Z,74.16
2023-03-29T19:41:37.842Z,74.46
2023-03-29T19:45:42.448Z,75.08
2023-03-29T19:49:46.131Z,75.72
2023-03-29T19:53:48.649Z,75.68
2023-03-29T19:57:51.225Z,75.37
2023-03-29T20:01:56.811Z,75.28
2023-03-29T20:05:59.572Z,75.05
2023-03-29T20:10:02.261Z,74.97
2023-03-29T20:14:05.556Z,74.74
2023-03-29T20:18:09.464Z,74.37
2023-03-29T20:22:12.817Z,74.28
2023-03-29T20:26:15.436Z,74.81
2023-03-29T20:30:18.230Z,75.24
2023-03-29T20:34:23.403Z,74.45
2023-03-29T20:38:25.938Z,75.00
2023-03-29T20:42:28.626Z,73.87
2023-03-29T20:46:34.140Z,73.91
2023-03-29T20:50:38.966Z,74.01
2023-03-29T20:54:41.833Z,74.32
2023-03-29T20:58:44.371Z,74.33
